Time;durP1;ratioP1;P1;durP2;ratioP2;P2;SDS_P1;SDS_P2;PMS_P1;PMS_P2;Temp;Humidity;BMP_temperature;BMP_pressure;BME280_temperature;BME280_humidity;BME280_pressure;Samples;Min_cycle;Max_cycle;Signal;HPM_P1;HPM_P2
2023/06/04 00:01:50;;;;;;;2.80;2.03;;;;;;;20.28;66.30;99820.78;5111587;28;20035;-84
2023/06/04 00:04:16;;;;;;;2.50;2.08;;;;;;;20.46;65.69;99836.81;5111563;28;20032;-85
2023/06/04 00:06:41;;;;;;;1.73;1.50;;;;;;;20.23;64.68;99803.22;5111895;28;20024;-84
2023/06/04 00:09:08;;;;;;;3.35;1.85;;;;;;;20.21;64.71;99808.66;5112506;28;20035;-85
2023/06/04 00:11:35;;;;;;;3.15;1.73;;;;;;;20.28;65.28;99836.84;5111398;28;20530;-84
2023/06/04 00:14:01;;;;;;;2.17;1.98;;;;;;;20.20;64.91;99806.91;5111668;28;20032;-84
2023/06/04 00:16:26;;;;;;;4.63;2.97;;;;;;;20.25;65.36;99810.22;5111176;28;20043;-83
2023/06/04 00:18:52;;;;;;;3.25;1.45;;;;;;;20.52;64.87;99833.78;5111593;28;20035;-84
2023/06/04 00:21:17;;;;;;;8.00;2.63;;;;;;;20.41;64.95;99796.00;5111555;28;20035;-85
2023/06/04 00:23:42;;;;;;;3.33;1.30;;;;;;;20.32;64.95;99782.16;5112068;28;20031;-84
2023/06/04 00:26:08;;;;;;;1.90;1.40;;;;;;;20.30;65.36;99810.84;5092995;28;20146;-85
2023/06/04 00:28:33;;;;;;;1.67;1.15;;;;;;;20.35;65.03;99798.06;5111251;28;20031;-84
2023/06/04 00:30:59;;;;;;;2.13;1.90;;;;;;;20.45;65.33;99822.56;5111788;28;20475;-84
2023/06/04 00:33:24;;;;;;;2.05;1.42;;;;;;;20.18;65.32;99780.22;5111651;28;20089;-84
2023/06/04 00:35:50;;;;;;;3.70;2.33;;;;;;;20.13;65.59;99784.97;5111505;28;20533;-83
2023/06/04 00:38:15;;;;;;;2.15;1.45;;;;;;;20.17;65.55;99799.94;5110668;28;20027;-84
2023/06/04 00:40:41;;;;;;;2.17;1.65;;;;;;;19.91;66.58;99777.22;5111353;28;20027;-84
2023/06/04 00:43:06;;;;;;;2.55;1.50;;;;;;;20.15;66.08;99807.16;5111060;28;20343;-85
2023/06/04 00:45:32;;;;;;;1.88;1.38;;;;;;;20.04;65.62;99796.16;5111417;28;20110;-84
2023/06/04 00:47:57;;;;;;;1.90;1.02;;;;;;;19.99;66.02;99819.63;5111422;28;20035;-84
2023/06/04 00:50:24;;;;;;;3.13;1.50;;;;;;;19.97;65.40;99818.81;5092207;28;20480;-84
2023/06/04 00:52:51;;;;;;;2.92;1.50;;;;;;;19.66;65.19;99773.09;5093102;28;20069;-84
2023/06/04 00:55:19;;;;;;;3.03;1.52;;;;;;;19.63;65.88;99799.13;5111433;28;20044;-84
2023/06/04 00:57:46;;;;;;;10.18;2.05;;;;;;;20.02;65.44;99827.50;5111367;28;20031;-83
2023/06/04 01:00:12;;;;;;;2.50;1.80;;;;;;;19.92;65.80;99800.31;5110960;28;20038;-84
2023/06/04 01:02:41;;;;;;;2.92;2.03;;;;;;;19.92;65.79;99807.50;5110877;28;20023;-83
2023/06/04 01:05:11;;;;;;;3.38;2.47;;;;;;;19.94;65.79;99814.53;5110912;28;20032;-83
2023/06/04 01:07:40;;;;;;;2.13;1.20;;;;;;;19.76;66.39;99804.72;5111448;28;20035;-84
2023/06/04 01:10:06;;;;;;;2.75;1.85;;;;;;;19.83;66.50;99816.88;5110408;28;20027;-84
2023/06/04 01:12:32;;;;;;;2.53;1.65;;;;;;;19.92;66.61;99827.09;5111065;28;20047;-84
2023/06/04 01:14:57;;;;;;;3.63;1.90;;;;;;;19.83;66.83;99809.72;5110630;28;20412;-84
2023/06/04 01:17:37;;;;;;;1.90;1.60;;;;;;;19.94;66.25;99808.28;5092211;28;20111;-84
2023/06/04 01:20:11;;;;;;;3.22;2.00;;;;;;;20.08;66.77;99835.22;5110541;28;20040;-84
2023/06/04 01:22:54;;;;;;;2.85;1.02;;;;;;;20.07;66.00;99833.47;5109990;28;20122;-83
2023/06/04 01:25:41;;;;;;;2.90;1.67;;;;;;;20.05;66.38;99835.38;5110428;28;20087;-83
2023/06/04 01:28:10;;;;;;;4.35;1.65;;;;;;;19.79;66.15;99812.63;5111093;28;20051;-83
2023/06/04 01:30:45;;;;;;;2.72;1.65;;;;;;;19.95;65.85;99829.63;5092462;28;20028;-83
2023/06/04 01:33:12;;;;;;;3.33;1.70;;;;;;;19.96;65.61;99828.69;5109588;28;20031;-85
2023/06/04 01:35:38;;;;;;;2.42;1.85;;;;;;;19.99;65.85;99846.41;5109977;28;20092;-84
2023/06/04 01:38:04;;;;;;;2.22;1.40;;;;;;;20.00;65.61;99795.47;5110417;28;20044;-84
2023/06/04 01:40:29;;;;;;;3.05;2.15;;;;;;;20.13;65.55;99838.50;5109958;28;20115;-84
2023/06/04 01:42:55;;;;;;;2.45;1.77;;;;;;;20.24;65.43;99845.97;5110132;28;20386;-84
2023/06/04 01:45:25;;;;;;;2.17;1.63;;;;;;;20.17;64.90;99817.78;5110002;28;20028;-83
2023/06/04 01:47:51;;;;;;;2.47;2.00;;;;;;;19.97;65.31;99797.41;5091904;28;20027;-84
2023/06/04 01:50:16;;;;;;;3.15;1.98;;;;;;;19.95;65.89;99802.00;5109503;28;20059;-84
2023/06/04 01:52:42;;;;;;;4.65;1.20;;;;;;;20.01;66.91;99823.94;5091833;28;20077;-84
2023/06/04 01:55:11;;;;;;;2.28;1.65;;;;;;;20.37;66.13;99844.41;5110107;28;20561;-84
2023/06/04 01:57:38;;;;;;;3.70;2.03;;;;;;;20.28;66.90;99850.25;5110238;28;20031;-84
2023/06/04 02:00:09;;;;;;;3.17;1.70;;;;;;;19.93;67.12;99795.88;5091492;28;20032;-83
2023/06/04 02:02:35;;;;;;;2.25;1.10;;;;;;;20.05;67.64;99819.31;5110199;28;20023;-84
2023/06/04 02:05:01;;;;;;;2.22;1.50;;;;;;;20.25;67.50;99846.84;5091500;28;20035;-83
2023/06/04 02:07:27;;;;;;;6.13;1.98;;;;;;;20.20;67.73;99842.63;5109820;28;20516;-83
2023/06/04 02:09:52;;;;;;;2.35;2.05;;;;;;;20.12;67.21;99839.44;5110313;28;20046;-83
2023/06/04 02:12:18;;;;;;;3.25;1.70;;;;;;;19.89;66.98;99805.84;5074001;28;20093;-84
2023/06/04 02:14:47;;;;;;;5.50;2.85;;;;;;;20.12;66.37;99834.09;5109834;28;20020;-85
2023/06/04 02:17:12;;;;;;;3.97;2.10;;;;;;;19.81;66.96;99803.56;5091629;28;20035;-83
2023/06/04 02:19:49;;;;;;;1.33;1.23;;;;;;;20.12;67.09;99858.19;5110041;28;20035;-84
2023/06/04 02:22:19;;;;;;;3.15;2.03;;;;;;;20.06;67.26;99869.22;5109350;28;20489;-84
2023/06/04 02:24:47;;;;;;;4.22;2.47;;;;;;;19.75;67.26;99829.75;5109595;28;20042;-84
2023/06/04 02:27:14;;;;;;;3.97;1.35;;;;;;;19.83;67.04;99832.94;5091712;28;20027;-84
2023/06/04 02:29:40;;;;;;;2.78;1.70;;;;;;;19.88;66.95;99856.78;5109973;28;20031;-84
2023/06/04 02:32:06;;;;;;;4.85;2.88;;;;;;;19.87;67.09;99860.41;5109609;28;20054;-84
2023/06/04 02:34:33;;;;;;;2.97;1.80;;;;;;;19.83;66.83;99860.59;5109797;28;20569;-83
2023/06/04 02:36:59;;;;;;;3.83;2.60;;;;;;;19.86;67.64;99870.25;5113095;28;20046;-84
2023/06/04 02:39:25;;;;;;;4.45;2.13;;;;;;;19.78;68.29;99888.50;5095070;28;20059;-84
2023/06/04 02:41:50;;;;;;;1.73;1.40;;;;;;;19.73;68.22;99869.97;5113903;28;20024;-84
2023/06/04 02:44:16;;;;;;;2.28;1.83;;;;;;;19.83;68.43;99887.34;5112766;28;20084;-84
2023/06/04 02:46:41;;;;;;;3.85;2.72;;;;;;;19.76;68.18;99887.69;5113469;28;20450;-84
2023/06/04 02:49:07;;;;;;;2.53;2.10;;;;;;;19.78;67.96;99881.34;5094783;28;20027;-84
2023/06/04 02:51:32;;;;;;;3.30;2.03;;;;;;;19.52;68.58;99866.53;5113414;28;20132;-84
2023/06/04 02:53:58;;;;;;;2.88;1.42;;;;;;;19.70;68.59;99879.97;5113263;28;20427;-84
2023/06/04 02:56:25;;;;;;;3.33;2.35;;;;;;;19.59;68.70;99884.03;5095150;28;20092;-84
2023/06/04 02:58:55;;;;;;;6.57;2.83;;;;;;;19.54;68.80;99866.47;5095285;28;20173;-84
2023/06/04 03:01:25;;;;;;;3.33;1.60;;;;;;;19.72;68.31;99889.63;5113815;28;20047;-84
2023/06/04 03:03:55;;;;;;;2.90;1.77;;;;;;;19.56;68.16;99875.31;5107813;28;20031;-84
2023/06/04 03:06:21;;;;;;;2.90;1.92;;;;;;;19.62;68.09;99888.38;5112850;28;20028;-84
2023/06/04 03:08:51;;;;;;;4.20;2.15;;;;;;;19.83;68.33;99914.09;5112843;28;20031;-84
2023/06/04 03:11:20;;;;;;;5.85;2.45;;;;;;;19.73;68.23;99880.69;5085782;28;20055;-85
2023/06/04 03:13:46;;;;;;;2.35;1.30;;;;;;;19.78;68.38;99880.47;5112766;28;20442;-85
2023/06/04 03:16:12;;;;;;;3.17;2.25;;;;;;;19.88;68.85;99897.81;5077250;28;20043;-85
2023/06/04 03:18:38;;;;;;;3.67;2.15;;;;;;;19.87;67.89;99889.88;5099243;28;20038;-85
2023/06/04 03:21:04;;;;;;;3.08;2.45;;;;;;;19.96;68.05;99914.34;5112365;28;20088;-83
2023/06/04 03:23:31;;;;;;;3.80;2.33;;;;;;;20.01;68.11;99916.78;5104404;28;20036;-83
2023/06/04 03:25:56;;;;;;;4.68;2.58;;;;;;;20.10;67.57;99900.25;5112738;28;20058;-83
2023/06/04 03:28:22;;;;;;;3.90;2.28;;;;;;;19.98;67.35;99872.28;5112437;28;20365;-83
2023/06/04 03:30:47;;;;;;;2.60;1.85;;;;;;;20.26;67.92;99928.94;5111610;28;20409;-83
2023/06/04 03:33:13;;;;;;;6.15;2.45;;;;;;;20.25;68.04;99932.53;5112746;28;20058;-83
2023/06/04 03:35:40;;;;;;;3.05;1.95;;;;;;;20.13;67.84;99894.75;5112035;28;20061;-83
2023/06/04 03:38:05;;;;;;;2.05;1.52;;;;;;;20.31;68.27;99930.44;5112628;28;20027;-83
2023/06/04 03:40:31;;;;;;;2.28;1.55;;;;;;;20.19;67.80;99897.09;5111901;28;20121;-83
2023/06/04 03:42:56;;;;;;;4.18;2.60;;;;;;;20.15;67.63;99900.88;5094061;28;20103;-82
2023/06/04 03:45:22;;;;;;;3.45;2.05;;;;;;;20.22;67.13;99904.13;5110393;28;20028;-83
2023/06/04 03:47:47;;;;;;;3.08;2.08;;;;;;;20.35;67.28;99942.72;5101837;28;20389;-83
2023/06/04 03:50:13;;;;;;;3.67;2.65;;;;;;;20.09;68.74;99905.69;5094124;28;20020;-82
2023/06/04 03:52:38;;;;;;;3.63;2.22;;;;;;;20.37;68.97;99924.75;5091868;28;20409;-82
2023/06/04 03:55:04;;;;;;;3.22;1.90;;;;;;;20.31;70.13;99950.97;5095682;28;20474;-83
2023/06/04 03:57:30;;;;;;;3.22;2.05;;;;;;;20.10;70.54;99932.41;5092931;28;20027;-84
2023/06/04 03:59:56;;;;;;;2.58;2.08;;;;;;;20.24;69.70;99931.69;5106443;28;20028;-84
2023/06/04 04:02:21;;;;;;;1.98;1.40;;;;;;;20.22;69.39;99930.91;5108317;28;20100;-84
2023/06/04 04:04:48;;;;;;;2.40;1.80;;;;;;;20.16;70.46;99948.16;5112044;28;20503;-82
2023/06/04 04:07:14;;;;;;;7.20;3.35;;;;;;;20.09;71.29;99927.97;5112076;28;20020;-82
2023/06/04 04:09:39;;;;;;;2.38;1.48;;;;;;;20.10;70.43;99940.44;5111589;28;20039;-82
2023/06/04 04:12:05;;;;;;;5.22;2.25;;;;;;;20.09;70.75;99956.56;5111647;28;20036;-82
2023/06/04 04:14:30;;;;;;;2.20;1.67;;;;;;;20.08;70.86;99930.72;5110796;28;20028;-81
2023/06/04 04:16:56;;;;;;;3.13;2.20;;;;;;;20.34;70.78;99966.91;5094012;28;20409;-83
2023/06/04 04:19:21;;;;;;;2.40;1.85;;;;;;;19.95;71.29;99922.47;5092989;28;20447;-80
2023/06/04 04:21:48;;;;;;;5.20;2.60;;;;;;;20.36;71.30;99967.72;5093527;28;20031;-80
2023/06/04 04:24:35;;;;;;;5.15;2.65;;;;;;;20.56;70.70;99959.50;5111194;28;20031;-82
2023/06/04 04:27:03;;;;;;;2.97;1.52;;;;;;;20.66;69.79;99943.81;5093391;28;20055;-82
2023/06/04 04:29:32;;;;;;;3.42;2.15;;;;;;;20.64;69.52;99952.88;5098379;28;20016;-82
2023/06/04 04:32:00;;;;;;;3.17;1.98;;;;;;;20.69;69.32;99970.47;5111004;28;20027;-82
2023/06/04 04:34:26;;;;;;;3.85;2.67;;;;;;;20.66;69.81;99967.09;5111026;28;20020;-81
2023/06/04 04:36:52;;;;;;;4.32;2.20;;;;;;;20.48;68.83;99940.28;5111573;28;20396;-81
2023/06/04 04:39:25;;;;;;;2.20;2.00;;;;;;;20.61;68.41;99942.31;5110614;28;20036;-81
2023/06/04 04:41:51;;;;;;;4.15;2.40;;;;;;;20.36;67.75;99939.09;5101499;28;20042;-81
2023/06/04 04:44:17;;;;;;;3.78;2.65;;;;;;;20.67;67.93;99979.56;5104695;28;20493;-81
2023/06/04 04:46:42;;;;;;;4.50;2.50;;;;;;;20.58;67.38;99954.06;5110876;28;20036;-81
2023/06/04 04:49:08;;;;;;;4.45;2.70;;;;;;;20.49;67.47;99965.25;5091907;28;20521;-81
2023/06/04 04:51:34;;;;;;;4.95;2.15;;;;;;;20.76;67.24;99971.03;5110313;28;20020;-81
2023/06/04 04:54:00;;;;;;;2.25;1.67;;;;;;;20.69;66.37;99953.53;5110714;28;20409;-83
2023/06/04 04:56:26;;;;;;;6.25;2.70;;;;;;;20.73;67.08;99969.34;5093420;28;20034;-82
2023/06/04 04:58:52;;;;;;;5.30;2.63;;;;;;;20.63;68.17;99978.78;5106168;28;20028;-82
2023/06/04 05:01:17;;;;;;;3.53;2.05;;;;;;;20.91;67.17;99997.03;5102291;28;20470;-82
2023/06/04 05:03:43;;;;;;;4.88;2.47;;;;;;;20.97;68.07;100006.53;5109357;28;20039;-83
2023/06/04 05:06:08;;;;;;;3.70;1.95;;;;;;;21.15;67.81;100012.72;5107850;28;20047;-84
2023/06/04 05:08:34;;;;;;;3.63;2.30;;;;;;;21.11;66.96;99976.28;5094861;28;20028;-83
2023/06/04 05:11:00;;;;;;;3.45;1.88;;;;;;;21.35;66.63;100008.97;5101434;28;20036;-84
2023/06/04 05:13:25;;;;;;;3.75;2.22;;;;;;;21.35;66.36;99994.66;5105269;28;20023;-83
2023/06/04 05:15:52;;;;;;;3.70;2.28;;;;;;;21.41;65.97;99988.97;5105336;27;20114;-83
2023/06/04 05:18:21;;;;;;;2.22;1.75;;;;;;;21.49;64.80;100010.94;5093027;28;20107;-83
2023/06/04 05:20:47;;;;;;;3.88;2.08;;;;;;;21.58;64.11;100014.91;5089996;28;20028;-82
2023/06/04 05:23:13;;;;;;;3.13;1.33;;;;;;;21.57;64.24;100029.28;5089678;28;20039;-82
2023/06/04 05:25:40;;;;;;;3.90;1.92;;;;;;;21.38;64.13;100007.91;5090728;28;20116;-82
2023/06/04 05:28:06;;;;;;;2.78;1.65;;;;;;;21.43;63.83;99990.63;5074546;28;20035;-82
2023/06/04 05:30:33;;;;;;;4.18;2.35;;;;;;;21.64;63.93;100011.88;5096753;28;20081;-82
2023/06/04 05:32:59;;;;;;;5.90;2.50;;;;;;;21.48;63.69;99992.19;5099378;28;20497;-82
2023/06/04 05:35:24;;;;;;;2.53;2.03;;;;;;;21.65;63.72;100002.88;5094859;28;20101;-82
2023/06/04 05:37:53;;;;;;;2.75;2.22;;;;;;;21.68;63.61;100015.28;5096327;28;20449;-82
2023/06/04 05:40:22;;;;;;;1.98;1.77;;;;;;;21.93;63.26;100025.47;5095563;28;20077;-82
2023/06/04 05:42:48;;;;;;;3.40;2.00;;;;;;;21.91;62.53;100008.59;5089163;28;20506;-82
2023/06/04 05:45:15;;;;;;;3.33;2.42;;;;;;;21.96;62.81;100028.84;5103249;28;20081;-82
2023/06/04 05:47:41;;;;;;;2.53;1.52;;;;;;;21.93;62.27;100015.59;5090996;28;20140;-82
2023/06/04 05:50:06;;;;;;;3.85;2.50;;;;;;;21.93;63.39;100023.66;5084030;28;20023;-82
2023/06/04 05:52:36;;;;;;;3.70;2.60;;;;;;;22.08;63.58;100050.59;5108216;28;20373;-81
2023/06/04 05:55:02;;;;;;;2.75;2.13;;;;;;;22.07;62.95;100032.75;5110115;28;20548;-82
2023/06/04 05:57:27;;;;;;;3.10;2.15;;;;;;;22.08;62.68;100037.19;5110104;28;20115;-81
2023/06/04 05:59:53;;;;;;;3.35;2.38;;;;;;;22.19;62.55;100026.66;5109473;28;20424;-81
2023/06/04 06:02:18;;;;;;;2.95;2.17;;;;;;;21.98;62.92;100012.63;5110118;28;20028;-82
2023/06/04 06:04:44;;;;;;;4.88;2.67;;;;;;;22.12;63.03;100031.53;5109695;28;20027;-81
2023/06/04 06:07:09;;;;;;;2.15;1.75;;;;;;;22.37;62.21;100037.31;5109645;28;20027;-82
2023/06/04 06:09:35;;;;;;;4.57;2.78;;;;;;;22.48;61.53;100046.50;5112603;28;20024;-82
2023/06/04 06:12:01;;;;;;;4.88;1.65;;;;;;;22.46;61.17;100045.72;5114356;28;20034;-83
2023/06/04 06:14:27;;;;;;;3.63;1.90;;;;;;;22.31;61.20;100033.19;5113541;28;20036;-83
2023/06/04 06:16:53;;;;;;;3.05;1.90;;;;;;;22.27;60.64;100027.06;5114138;28;20127;-83
2023/06/04 06:19:18;;;;;;;2.60;1.73;;;;;;;22.50;61.79;100070.59;5114471;28;20028;-83
2023/06/04 06:21:44;;;;;;;2.25;1.90;;;;;;;22.58;60.91;100065.63;5113536;28;20054;-83
2023/06/04 06:24:10;;;;;;;4.88;3.08;;;;;;;22.46;62.04;100077.97;5114203;28;20035;-84
2023/06/04 06:26:35;;;;;;;2.33;1.45;;;;;;;22.59;62.10;100074.56;5113938;28;20064;-83
2023/06/04 06:29:01;;;;;;;4.72;2.03;;;;;;;22.42;62.23;100086.31;5113697;28;20469;-84
2023/06/04 06:31:27;;;;;;;2.90;1.70;;;;;;;22.27;61.33;100043.19;5113576;28;20031;-83
2023/06/04 06:33:52;;;;;;;2.60;2.35;;;;;;;22.44;61.57;100050.31;5113700;28;20036;-84
2023/06/04 06:36:18;;;;;;;3.58;1.50;;;;;;;22.56;61.42;100053.25;5113885;28;20027;-83
2023/06/04 06:38:47;;;;;;;4.65;2.88;;;;;;;22.42;60.80;100024.50;5113989;28;20085;-83
2023/06/04 06:41:13;;;;;;;17.88;3.83;;;;;;;22.66;61.45;100065.16;5113428;28;20059;-83
2023/06/04 06:43:38;;;;;;;3.40;1.90;;;;;;;22.41;61.82;100076.50;5113188;28;20112;-84
2023/06/04 06:46:04;;;;;;;5.03;2.47;;;;;;;22.35;61.77;100070.53;5114476;28;20032;-84
2023/06/04 06:48:29;;;;;;;2.08;1.35;;;;;;;22.48;61.27;100059.94;5094849;28;20462;-84
2023/06/04 06:50:55;;;;;;;5.63;2.65;;;;;;;22.24;62.46;100051.44;5113468;28;20461;-84
2023/06/04 06:53:21;;;;;;;4.18;2.40;;;;;;;22.44;63.12;100089.75;5113522;28;20429;-83
2023/06/04 06:55:46;;;;;;;4.07;2.80;;;;;;;22.59;62.30;100078.13;5094933;28;20044;-83
2023/06/04 06:58:12;;;;;;;2.35;1.55;;;;;;;22.65;62.63;100076.91;5112713;28;20418;-84
2023/06/04 07:00:37;;;;;;;3.67;2.15;;;;;;;22.45;62.85;100095.06;5113127;28;20032;-83
2023/06/04 07:03:03;;;;;;;3.40;1.83;;;;;;;22.47;63.08;100068.09;5112930;28;20055;-84
2023/06/04 07:05:29;;;;;;;2.97;2.00;;;;;;;22.16;64.48;100080.56;5112838;28;20035;-84
2023/06/04 07:07:57;;;;;;;2.85;2.35;;;;;;;22.33;64.30;100077.81;5113288;28;20034;-84
2023/06/04 07:10:22;;;;;;;5.88;2.55;;;;;;;22.11;65.45;100069.22;5113062;28;20032;-84
2023/06/04 07:12:48;;;;;;;4.18;2.88;;;;;;;22.53;65.40;100103.53;5112980;28;20028;-84
2023/06/04 07:15:13;;;;;;;5.40;2.72;;;;;;;22.68;64.11;100085.63;5112910;28;20028;-84
2023/06/04 07:17:39;;;;;;;5.18;2.58;;;;;;;22.63;64.21;100076.09;5112775;28;20023;-84
2023/06/04 07:20:07;;;;;;;4.93;3.35;;;;;;;22.82;64.64;100105.47;5112160;28;20023;-84
2023/06/04 07:22:33;;;;;;;3.50;2.63;;;;;;;22.66;65.24;100103.69;5112018;28;20446;-84
2023/06/04 07:24:58;;;;;;;4.53;2.22;;;;;;;22.60;65.30;100090.59;5112528;28;20084;-84
2023/06/04 07:27:24;;;;;;;3.90;3.22;;;;;;;22.46;65.98;100126.34;5112651;28;20424;-85
2023/06/04 07:29:50;;;;;;;5.65;3.22;;;;;;;21.96;67.00;100087.94;5112536;28;20039;-83
2023/06/04 07:32:15;;;;;;;4.07;2.20;;;;;;;21.88;67.16;100073.22;5112826;28;20026;-83
2023/06/04 07:34:41;;;;;;;4.43;2.95;;;;;;;22.16;66.78;100059.09;5094313;28;20066;-84
2023/06/04 07:37:07;;;;;;;3.35;2.33;;;;;;;22.29;66.36;100086.09;5112374;28;20032;-84
2023/06/04 07:39:33;;;;;;;4.55;2.45;;;;;;;22.20;68.32;100092.88;5112802;28;20032;-84
2023/06/04 07:41:58;;;;;;;2.80;1.63;;;;;;;22.35;67.71;100104.59;5112075;28;20076;-84
2023/06/04 07:44:24;;;;;;;4.10;2.70;;;;;;;21.99;67.85;100081.53;5112364;28;20038;-84
2023/06/04 07:46:49;;;;;;;3.90;2.58;;;;;;;22.18;68.97;100119.84;5112095;28;20023;-84
2023/06/04 07:49:15;;;;;;;4.85;2.55;;;;;;;21.96;69.29;100097.81;5112284;28;20035;-84
2023/06/04 07:51:40;;;;;;;5.38;3.47;;;;;;;21.89;68.91;100094.63;5112058;28;20035;-84
2023/06/04 07:54:06;;;;;;;6.20;1.77;;;;;;;21.95;68.61;100102.34;5112564;28;20051;-84
2023/06/04 07:56:31;;;;;;;3.88;1.77;;;;;;;21.89;68.01;100083.88;5112460;28;20054;-84
2023/06/04 07:58:57;;;;;;;2.17;1.73;;;;;;;21.88;67.99;100103.63;5111939;28;20488;-84
2023/06/04 08:01:23;;;;;;;5.20;2.95;;;;;;;21.72;67.96;100102.72;5112299;28;20024;-84
2023/06/04 08:03:49;;;;;;;5.30;3.38;;;;;;;21.80;68.49;100106.72;5111759;28;20032;-84
2023/06/04 08:06:15;;;;;;;4.10;2.40;;;;;;;21.59;68.54;100100.69;5112622;28;20085;-84
2023/06/04 08:08:49;;;;;;;6.15;2.50;;;;;;;21.62;70.68;100130.06;5112147;28;20032;-84
2023/06/04 08:11:15;;;;;;;3.42;2.47;;;;;;;21.46;70.42;100070.09;5112584;28;20112;-83
2023/06/04 08:13:41;;;;;;;2.88;2.13;;;;;;;21.58;71.31;100101.66;5111446;28;20028;-83
2023/06/04 08:16:07;;;;;;;4.20;2.17;;;;;;;21.92;70.99;100115.94;5113917;28;20088;-83
2023/06/04 08:18:33;;;;;;;6.53;2.80;;;;;;;21.82;71.08;100131.66;5111661;28;20084;-83
2023/06/04 08:20:58;;;;;;;5.30;3.80;;;;;;;21.69;72.02;100140.47;5112126;28;20035;-84
2023/06/04 08:23:24;;;;;;;6.20;3.75;;;;;;;21.77;71.12;100106.88;5112228;28;20070;-85
2023/06/04 08:25:50;;;;;;;3.50;2.40;;;;;;;21.91;71.10;100105.28;5111854;28;20464;-83
2023/06/04 08:28:16;;;;;;;2.88;1.88;;;;;;;21.87;69.10;100101.00;5111420;28;20042;-83
2023/06/04 08:30:45;;;;;;;4.13;2.13;;;;;;;22.16;67.93;100143.22;5115412;28;20046;-82
2023/06/04 08:33:11;;;;;;;3.42;2.45;;;;;;;21.96;67.62;100109.41;5133650;28;20085;-83
2023/06/04 08:35:36;;;;;;;2.25;1.63;;;;;;;21.86;68.08;100113.59;5134790;28;20031;-81
2023/06/04 08:38:02;;;;;;;4.47;2.70;;;;;;;21.81;67.83;100102.22;5114880;28;20054;-83
2023/06/04 08:40:27;;;;;;;3.15;2.50;;;;;;;21.88;67.30;100083.97;5136444;28;20023;-83
2023/06/04 08:42:58;;;;;;;4.45;2.65;;;;;;;22.44;66.96;100139.00;5135716;28;20043;-83
2023/06/04 08:45:25;;;;;;;3.38;2.33;;;;;;;22.56;65.45;100140.13;5117582;28;20035;-84
2023/06/04 08:47:52;;;;;;;3.17;2.33;;;;;;;22.84;64.74;100149.28;5131096;28;20047;-81
2023/06/04 08:50:20;;;;;;;6.32;1.70;;;;;;;22.54;63.85;100125.91;5116186;28;20023;-83
2023/06/04 08:52:47;;;;;;;4.45;2.30;;;;;;;22.42;64.02;100102.44;5115865;28;20039;-82
2023/06/04 08:55:14;;;;;;;3.08;2.20;;;;;;;21.97;64.86;100095.03;5110255;28;20061;-82
2023/06/04 08:57:40;;;;;;;2.33;2.08;;;;;;;22.48;61.85;100137.88;5110232;28;20028;-82
2023/06/04 09:00:08;;;;;;;4.85;2.15;;;;;;;22.63;60.53;100127.19;5110283;28;20031;-82
2023/06/04 09:02:39;;;;;;;2.65;1.70;;;;;;;22.75;60.11;100133.66;5091836;28;20438;-81
2023/06/04 09:05:08;;;;;;;4.88;1.40;;;;;;;22.74;61.86;100114.00;5110384;28;20540;-83
2023/06/04 09:07:36;;;;;;;26.25;2.42;;;;;;;23.07;61.22;100113.78;5110789;28;20023;-84
2023/06/04 09:10:02;;;;;;;1.90;1.65;;;;;;;23.07;61.01;100155.97;5109916;28;20024;-82
2023/06/04 09:12:29;;;;;;;2.83;2.08;;;;;;;22.57;62.21;100117.66;5109727;28;20027;-83
2023/06/04 09:14:55;;;;;;;2.13;1.83;;;;;;;22.85;62.15;100119.59;5108148;28;20020;-82
2023/06/04 09:17:24;;;;;;;2.50;1.40;;;;;;;23.10;60.89;100109.22;5100339;28;20504;-84
2023/06/04 09:19:53;;;;;;;7.60;2.55;;;;;;;23.51;60.33;100132.72;5103850;28;20042;-82
2023/06/04 09:22:18;;;;;;;3.10;1.83;;;;;;;23.64;60.86;100112.16;5109280;28;20023;-83
2023/06/04 09:24:46;;;;;;;8.73;2.53;;;;;;;24.23;58.85;100116.53;5108299;28;20038;-83
2023/06/04 09:27:14;;;;;;;1.75;1.35;;;;;;;24.25;58.91;100109.19;5099186;28;20111;-82
2023/06/04 09:29:40;;;;;;;3.17;2.45;;;;;;;24.16;58.80;100132.25;5082065;28;20789;-82
2023/06/04 09:32:06;;;;;;;4.47;2.33;;;;;;;24.52;59.80;100146.13;5083348;28;20118;-82
2023/06/04 09:34:31;;;;;;;2.08;1.60;;;;;;;24.25;58.56;100145.13;5089089;28;20115;-84
2023/06/04 09:36:58;;;;;;;6.30;1.98;;;;;;;24.15;59.53;100145.81;5098019;28;20026;-85
2023/06/04 09:39:24;;;;;;;2.85;1.88;;;;;;;24.29;57.46;100135.84;5099794;28;20032;-86
2023/06/04 09:42:02;;;;;;;7.70;3.13;;;;;;;24.25;57.36;100146.94;5103447;28;20052;-83
2023/06/04 09:44:31;;;;;;;2.92;2.33;;;;;;;24.13;57.63;100119.81;5077092;28;20032;-85
2023/06/04 09:46:58;;;;;;;1.73;1.58;;;;;;;24.46;56.89;100155.47;5099524;27;20096;-85
2023/06/04 09:49:24;;;;;;;3.35;1.83;;;;;;;23.71;57.42;100113.50;5074716;28;20138;-84
2023/06/04 09:51:50;;;;;;;1.98;1.52;;;;;;;23.65;56.14;100129.16;5092800;28;20406;-85
2023/06/04 09:54:17;;;;;;;2.75;1.63;;;;;;;23.63;57.64;100134.66;5094498;28;20453;-84
2023/06/04 09:56:43;;;;;;;3.13;1.55;;;;;;;23.81;57.77;100132.63;5097202;28;20069;-83
2023/06/04 09:59:09;;;;;;;7.35;2.00;;;;;;;24.39;57.27;100149.63;5094510;28;20034;-83
2023/06/04 10:01:39;;;;;;;4.00;2.30;;;;;;;24.44;56.48;100146.63;5078995;28;20519;-85
2023/06/04 10:04:08;;;;;;;2.38;1.15;;;;;;;24.61;54.17;100142.84;5090544;28;20042;-83
2023/06/04 10:06:35;;;;;;;2.05;1.00;;;;;;;24.63;51.84;100147.16;5095864;28;20492;-83
2023/06/04 10:09:07;;;;;;;3.20;1.83;;;;;;;24.53;52.43;100140.63;5093230;28;20520;-83
2023/06/04 10:11:40;;;;;;;1.60;1.30;;;;;;;24.77;51.28;100148.06;5092811;28;20074;-84
2023/06/04 10:14:25;;;;;;;2.10;1.30;;;;;;;24.91;47.57;100118.31;5099724;28;20130;-83
2023/06/04 10:16:51;;;;;;;4.03;1.52;;;;;;;24.96;43.19;100104.50;5092313;28;20565;-85
2023/06/04 10:19:18;;;;;;;2.88;2.17;;;;;;;24.95;48.75;100119.00;5093201;28;20031;-83
2023/06/04 10:21:44;;;;;;;0.90;0.80;;;;;;;25.22;48.92;100135.09;5095017;28;20043;-83
2023/06/04 10:24:12;;;;;;;2.42;1.50;;;;;;;25.31;51.09;100121.00;5076079;28;20531;-85
2023/06/04 10:26:39;;;;;;;2.20;1.15;;;;;;;25.49;48.16;100096.38;5097150;28;20063;-84
2023/06/04 10:29:05;;;;;;;1.70;0.95;;;;;;;25.05;48.34;100084.97;5090643;28;20135;-83
2023/06/04 10:31:32;;;;;;;2.40;1.23;;;;;;;25.64;48.69;100099.81;5098204;28;20416;-85
2023/06/04 10:33:58;;;;;;;7.00;3.13;;;;;;;25.39;53.06;100079.94;5093035;28;20478;-84
2023/06/04 10:36:25;;;;;;;3.25;1.90;;;;;;;25.82;55.90;100130.06;5100263;28;20050;-85
2023/06/04 10:38:55;;;;;;;4.57;2.65;;;;;;;25.83;56.17;100123.69;5107239;28;20039;-86
2023/06/04 10:41:22;;;;;;;4.47;2.33;;;;;;;25.48;57.58;100113.53;5099443;28;20044;-85
2023/06/04 10:43:49;;;;;;;4.45;2.63;;;;;;;25.61;58.19;100137.84;5076176;28;20043;-87
2023/06/04 10:46:16;;;;;;;2.40;2.17;;;;;;;25.84;57.27;100128.09;5096826;28;20034;-86
2023/06/04 10:48:52;;;;;;;6.22;2.88;;;;;;;25.50;57.00;100125.97;5081024;28;20413;-85
2023/06/04 10:51:30;;;;;;;3.95;2.47;;;;;;;25.46;55.90;100107.41;5085331;28;20084;-85
2023/06/04 10:54:00;;;;;;;4.13;2.85;;;;;;;25.49;56.63;100108.03;5100000;28;20037;-86
2023/06/04 10:56:35;;;;;;;7.72;4.18;;;;;;;25.64;58.42;100099.81;5086950;28;20060;-86
2023/06/04 10:59:12;;;;;;;3.97;3.33;;;;;;;25.54;56.41;100089.66;5107057;28;20438;-85
2023/06/04 11:01:38;;;;;;;1.70;1.45;;;;;;;25.51;56.87;100091.72;5105916;28;20066;-86
2023/06/04 11:04:03;;;;;;;5.10;1.95;;;;;;;25.23;57.25;100057.69;5111573;28;20063;-87
2023/06/04 11:06:30;;;;;;;5.65;3.10;;;;;;;25.20;57.83;100113.59;5078344;28;20402;-86
2023/06/04 11:09:03;;;;;;;4.38;2.92;;;;;;;25.13;58.16;100093.44;5108246;28;20039;-87
2023/06/04 11:11:29;;;;;;;5.30;3.28;;;;;;;25.37;59.33;100122.41;5113242;28;20028;-86
2023/06/04 11:13:55;;;;;;;5.53;3.17;;;;;;;25.18;58.86;100090.41;5112898;28;20050;-86
2023/06/04 11:16:21;;;;;;;4.88;2.85;;;;;;;25.42;57.95;100098.63;5099140;28;20020;-85
2023/06/04 11:18:58;;;;;;;4.97;2.70;;;;;;;25.39;57.47;100120.44;5074280;28;20028;-85
2023/06/04 11:21:25;;;;;;;3.78;2.80;;;;;;;25.53;55.85;100123.06;5092815;28;20059;-89
2023/06/04 11:24:00;;;;;;;6.10;3.35;;;;;;;25.28;57.45;100114.91;5107811;28;20101;-88
2023/06/04 11:26:35;;;;;;;;;;;;;;;25.72;57.15;100119.06;5092780;28;20038;-88
2023/06/04 11:29:05;;;;;;;4.60;2.83;;;;;;;25.59;56.67;100110.94;5092461;28;19966;-87